sensor_id;sensor_type;location;lat;lon;timestamp;P1;durP1;ratioP1;P2;durP2;ratioP2
11173;SDS011;5643;50.856;12.088;2023-08-20T00:01:14;2.50;;;2.30;;
11173;SDS011;5643;50.856;12.088;2023-08-20T00:03:43;2.88;;;2.67;;
11173;SDS011;5643;50.856;12.088;2023-08-20T00:06:12;3.13;;;2.83;;
11173;SDS011;5643;50.856;12.088;2023-08-20T00:08:41;3.00;;;2.80;;
11173;SDS011;5643;50.856;12.088;2023-08-20T00:11:12;3.05;;;2.67;;
11173;SDS011;5643;50.856;12.088;2023-08-20T00:13:40;2.50;;;2.40;;
11173;SDS011;5643;50.856;12.088;2023-08-20T00:16:09;2.47;;;2.33;;
11173;SDS011;5643;50.856;12.088;2023-08-20T00:18:37;2.70;;;2.50;;
11173;SDS011;5643;50.856;12.088;2023-08-20T00:21:08;2.38;;;2.20;;
11173;SDS011;5643;50.856;12.088;2023-08-20T00:23:36;2.40;;;2.25;;
11173;SDS011;5643;50.856;12.088;2023-08-20T00:26:04;3.10;;;2.90;;
11173;SDS011;5643;50.856;12.088;2023-08-20T00:28:35;3.13;;;2.92;;
11173;SDS011;5643;50.856;12.088;2023-08-20T00:31:04;3.13;;;2.92;;
11173;SDS011;5643;50.856;12.088;2023-08-20T00:33:33;2.58;;;2.47;;
11173;SDS011;5643;50.856;12.088;2023-08-20T00:36:01;2.85;;;2.65;;
11173;SDS011;5643;50.856;12.088;2023-08-20T00:38:30;2.60;;;2.40;;
11173;SDS011;5643;50.856;12.088;2023-08-20T00:40:58;2.33;;;2.22;;
11173;SDS011;5643;50.856;12.088;2023-08-20T00:43:26;2.50;;;2.30;;
11173;SDS011;5643;50.856;12.088;2023-08-20T00:45:58;2.25;;;2.15;;
11173;SDS011;5643;50.856;12.088;2023-08-20T00:48:26;2.10;;;2.00;;
11173;SDS011;5643;50.856;12.088;2023-08-20T00:50:54;2.10;;;2.00;;
11173;SDS011;5643;50.856;12.088;2023-08-20T00:53:23;2.20;;;2.10;;
11173;SDS011;5643;50.856;12.088;2023-08-20T00:55:54;2.20;;;2.08;;
11173;SDS011;5643;50.856;12.088;2023-08-20T00:58:24;2.47;;;2.38;;
11173;SDS011;5643;50.856;12.088;2023-08-20T01:00:52;2.42;;;2.33;;
11173;SDS011;5643;50.856;12.088;2023-08-20T01:03:22;2.88;;;2.40;;
11173;SDS011;5643;50.856;12.088;2023-08-20T01:05:53;2.17;;;2.08;;
11173;SDS011;5643;50.856;12.088;2023-08-20T01:08:25;2.50;;;2.30;;
11173;SDS011;5643;50.856;12.088;2023-08-20T01:10:59;1.90;;;1.80;;
11173;SDS011;5643;50.856;12.088;2023-08-20T01:13:29;2.50;;;2.30;;
11173;SDS011;5643;50.856;12.088;2023-08-20T01:15:59;2.25;;;2.15;;
11173;SDS011;5643;50.856;12.088;2023-08-20T01:18:30;2.42;;;2.15;;
11173;SDS011;5643;50.856;12.088;2023-08-20T01:21:01;3.60;;;2.50;;
11173;SDS011;5643;50.856;12.088;2023-08-20T01:23:51;2.65;;;2.47;;
11173;SDS011;5643;50.856;12.088;2023-08-20T01:26:30;2.50;;;2.40;;
11173;SDS011;5643;50.856;12.088;2023-08-20T01:29:01;2.50;;;2.30;;
11173;SDS011;5643;50.856;12.088;2023-08-20T01:31:30;2.40;;;2.30;;
11173;SDS011;5643;50.856;12.088;2023-08-20T01:33:59;2.58;;;2.38;;
11173;SDS011;5643;50.856;12.088;2023-08-20T01:36:28;2.28;;;2.17;;
11173;SDS011;5643;50.856;12.088;2023-08-20T01:38:55;2.10;;;2.00;;
11173;SDS011;5643;50.856;12.088;2023-08-20T01:41:23;2.40;;;2.30;;
11173;SDS011;5643;50.856;12.088;2023-08-20T01:43:53;2.65;;;2.47;;
11173;SDS011;5643;50.856;12.088;2023-08-20T01:46:22;2.90;;;2.70;;
11173;SDS011;5643;50.856;12.088;2023-08-20T01:48:52;4.07;;;2.80;;
11173;SDS011;5643;50.856;12.088;2023-08-20T01:51:19;2.97;;;2.65;;
11173;SDS011;5643;50.856;12.088;2023-08-20T01:53:47;2.70;;;2.50;;
11173;SDS011;5643;50.856;12.088;2023-08-20T01:56:16;2.90;;;2.70;;
11173;SDS011;5643;50.856;12.088;2023-08-20T01:58:43;2.40;;;2.30;;
11173;SDS011;5643;50.856;12.088;2023-08-20T02:01:13;2.42;;;2.33;;
11173;SDS011;5643;50.856;12.088;2023-08-20T02:03:42;2.72;;;2.53;;
11173;SDS011;5643;50.856;12.088;2023-08-20T02:06:09;2.50;;;2.30;;
11173;SDS011;5643;50.856;12.088;2023-08-20T02:08:37;2.28;;;2.17;;
11173;SDS011;5643;50.856;12.088;2023-08-20T02:11:05;2.42;;;2.22;;
11173;SDS011;5643;50.856;12.088;2023-08-20T02:13:34;2.85;;;2.60;;
11173;SDS011;5643;50.856;12.088;2023-08-20T02:16:03;2.58;;;2.38;;
11173;SDS011;5643;50.856;12.088;2023-08-20T02:18:32;2.60;;;2.40;;
11173;SDS011;5643;50.856;12.088;2023-08-20T02:21:03;2.25;;;2.15;;
11173;SDS011;5643;50.856;12.088;2023-08-20T02:23:30;2.70;;;2.50;;
11173;SDS011;5643;50.856;12.088;2023-08-20T02:26:00;2.60;;;2.38;;
11173;SDS011;5643;50.856;12.088;2023-08-20T02:28:29;2.78;;;2.58;;
11173;SDS011;5643;50.856;12.088;2023-08-20T02:30:57;2.40;;;2.30;;
11173;SDS011;5643;50.856;12.088;2023-08-20T02:33:37;2.80;;;2.60;;
11173;SDS011;5643;50.856;12.088;2023-08-20T02:36:06;2.83;;;2.63;;
11173;SDS011;5643;50.856;12.088;2023-08-20T02:38:34;2.83;;;2.63;;
11173;SDS011;5643;50.856;12.088;2023-08-20T02:41:01;2.45;;;2.33;;
11173;SDS011;5643;50.856;12.088;2023-08-20T02:43:29;2.05;;;1.95;;
11173;SDS011;5643;50.856;12.088;2023-08-20T02:45:57;2.25;;;2.15;;
11173;SDS011;5643;50.856;12.088;2023-08-20T02:48:24;1.92;;;1.83;;
11173;SDS011;5643;50.856;12.088;2023-08-20T02:50:53;2.22;;;2.13;;
11173;SDS011;5643;50.856;12.088;2023-08-20T02:53:22;2.10;;;2.00;;
11173;SDS011;5643;50.856;12.088;2023-08-20T02:55:49;2.63;;;2.38;;
11173;SDS011;5643;50.856;12.088;2023-08-20T02:58:17;2.38;;;2.10;;
11173;SDS011;5643;50.856;12.088;2023-08-20T03:00:45;2.30;;;2.20;;
11173;SDS011;5643;50.856;12.088;2023-08-20T03:03:12;2.53;;;2.30;;
11173;SDS011;5643;50.856;12.088;2023-08-20T03:05:40;2.00;;;1.90;;
11173;SDS011;5643;50.856;12.088;2023-08-20T03:08:10;2.28;;;2.10;;
11173;SDS011;5643;50.856;12.088;2023-08-20T03:10:39;2.20;;;2.10;;
11173;SDS011;5643;50.856;12.088;2023-08-20T03:13:06;2.75;;;2.55;;
11173;SDS011;5643;50.856;12.088;2023-08-20T03:15:34;3.05;;;2.35;;
11173;SDS011;5643;50.856;12.088;2023-08-20T03:18:01;2.70;;;2.50;;
11173;SDS011;5643;50.856;12.088;2023-08-20T03:20:28;2.80;;;2.60;;
11173;SDS011;5643;50.856;12.088;2023-08-20T03:22:57;2.53;;;2.40;;
11173;SDS011;5643;50.856;12.088;2023-08-20T03:25:25;3.00;;;2.80;;
11173;SDS011;5643;50.856;12.088;2023-08-20T03:27:54;2.63;;;2.40;;
11173;SDS011;5643;50.856;12.088;2023-08-20T03:30:23;2.60;;;2.40;;
11173;SDS011;5643;50.856;12.088;2023-08-20T03:32:51;2.60;;;2.40;;
11173;SDS011;5643;50.856;12.088;2023-08-20T03:35:19;2.75;;;2.55;;
11173;SDS011;5643;50.856;12.088;2023-08-20T03:37:47;3.67;;;2.65;;
11173;SDS011;5643;50.856;12.088;2023-08-20T03:40:14;4.10;;;3.80;;
11173;SDS011;5643;50.856;12.088;2023-08-20T03:42:44;3.97;;;3.67;;
11173;SDS011;5643;50.856;12.088;2023-08-20T03:45:13;3.80;;;3.50;;
11173;SDS011;5643;50.856;12.088;2023-08-20T03:47:40;4.45;;;4.15;;
11173;SDS011;5643;50.856;12.088;2023-08-20T03:50:10;6.03;;;5.63;;
11173;SDS011;5643;50.856;12.088;2023-08-20T03:52:38;5.57;;;5.18;;
11173;SDS011;5643;50.856;12.088;2023-08-20T03:55:06;6.32;;;5.82;;
11173;SDS011;5643;50.856;12.088;2023-08-20T03:57:34;6.20;;;5.70;;
11173;SDS011;5643;50.856;12.088;2023-08-20T04:00:01;6.00;;;5.60;;
11173;SDS011;5643;50.856;12.088;2023-08-20T04:02:31;4.75;;;4.35;;
11173;SDS011;5643;50.856;12.088;2023-08-20T04:04:58;5.32;;;4.93;;
11173;SDS011;5643;50.856;12.088;2023-08-20T04:07:26;6.10;;;5.60;;
11173;SDS011;5643;50.856;12.088;2023-08-20T04:09:54;8.23;;;7.45;;
11173;SDS011;5643;50.856;12.088;2023-08-20T04:12:21;9.35;;;8.55;;
11173;SDS011;5643;50.856;12.088;2023-08-20T04:14:49;8.80;;;8.00;;
11173;SDS011;5643;50.856;12.088;2023-08-20T04:17:16;8.82;;;8.13;;
11173;SDS011;5643;50.856;12.088;2023-08-20T04:19:46;10.35;;;9.45;;
11173;SDS011;5643;50.856;12.088;2023-08-20T04:22:13;7.78;;;7.18;;
11173;SDS011;5643;50.856;12.088;2023-08-20T04:24:41;9.05;;;8.35;;
11173;SDS011;5643;50.856;12.088;2023-08-20T04:27:08;7.97;;;7.38;;
11173;SDS011;5643;50.856;12.088;2023-08-20T04:29:35;8.57;;;7.90;;
11173;SDS011;5643;50.856;12.088;2023-08-20T04:32:03;7.57;;;7.07;;
11173;SDS011;5643;50.856;12.088;2023-08-20T04:34:30;7.60;;;6.97;;
11173;SDS011;5643;50.856;12.088;2023-08-20T04:36:59;8.50;;;7.80;;
11173;SDS011;5643;50.856;12.088;2023-08-20T04:39:26;8.48;;;7.82;;
11173;SDS011;5643;50.856;12.088;2023-08-20T04:41:54;9.77;;;8.93;;
11173;SDS011;5643;50.856;12.088;2023-08-20T04:44:25;8.40;;;7.80;;
11173;SDS011;5643;50.856;12.088;2023-08-20T04:46:53;8.45;;;7.82;;
11173;SDS011;5643;50.856;12.088;2023-08-20T04:49:20;7.80;;;7.20;;
11173;SDS011;5643;50.856;12.088;2023-08-20T04:51:48;9.15;;;8.45;;
11173;SDS011;5643;50.856;12.088;2023-08-20T04:54:17;7.80;;;7.20;;
11173;SDS011;5643;50.856;12.088;2023-08-20T04:56:44;7.70;;;7.10;;
11173;SDS011;5643;50.856;12.088;2023-08-20T04:59:12;7.70;;;7.03;;
11173;SDS011;5643;50.856;12.088;2023-08-20T05:01:39;7.05;;;6.55;;
11173;SDS011;5643;50.856;12.088;2023-08-20T05:04:07;6.00;;;5.60;;
11173;SDS011;5643;50.856;12.088;2023-08-20T05:06:34;6.03;;;5.63;;
11173;SDS011;5643;50.856;12.088;2023-08-20T05:09:02;5.97;;;5.57;;
11173;SDS011;5643;50.856;12.088;2023-08-20T05:11:31;5.45;;;5.05;;
11173;SDS011;5643;50.856;12.088;2023-08-20T05:13:59;5.20;;;4.90;;
11173;SDS011;5643;50.856;12.088;2023-08-20T05:16:27;4.80;;;4.50;;
11173;SDS011;5643;50.856;12.088;2023-08-20T05:18:55;5.00;;;4.60;;
11173;SDS011;5643;50.856;12.088;2023-08-20T05:21:22;4.70;;;4.40;;
11173;SDS011;5643;50.856;12.088;2023-08-20T05:23:50;5.90;;;5.50;;
11173;SDS011;5643;50.856;12.088;2023-08-20T05:26:17;5.30;;;4.90;;
11173;SDS011;5643;50.856;12.088;2023-08-20T05:28:46;6.47;;;5.97;;
11173;SDS011;5643;50.856;12.088;2023-08-20T05:31:14;6.95;;;6.45;;
11173;SDS011;5643;50.856;12.088;2023-08-20T05:33:41;8.43;;;7.78;;
11173;SDS011;5643;50.856;12.088;2023-08-20T05:36:09;6.03;;;5.63;;
11173;SDS011;5643;50.856;12.088;2023-08-20T05:38:36;5.57;;;5.18;;
11173;SDS011;5643;50.856;12.088;2023-08-20T05:41:03;6.10;;;5.60;;
11173;SDS011;5643;50.856;12.088;2023-08-20T05:43:31;6.47;;;6.00;;
11173;SDS011;5643;50.856;12.088;2023-08-20T05:46:00;7.30;;;6.78;;
11173;SDS011;5643;50.856;12.088;2023-08-20T05:48:28;7.65;;;7.10;;
11173;SDS011;5643;50.856;12.088;2023-08-20T05:50:56;8.70;;;8.05;;
11173;SDS011;5643;50.856;12.088;2023-08-20T05:53:24;9.60;;;8.80;;
11173;SDS011;5643;50.856;12.088;2023-08-20T05:55:52;11.13;;;10.32;;
11173;SDS011;5643;50.856;12.088;2023-08-20T05:58:19;14.20;;;13.02;;
11173;SDS011;5643;50.856;12.088;2023-08-20T06:00:47;11.90;;;11.00;;
11173;SDS011;5643;50.856;12.088;2023-08-20T06:03:16;11.20;;;10.40;;
11173;SDS011;5643;50.856;12.088;2023-08-20T06:05:43;11.35;;;10.55;;
11173;SDS011;5643;50.856;12.088;2023-08-20T06:08:11;12.80;;;11.75;;
11173;SDS011;5643;50.856;12.088;2023-08-20T06:10:45;12.10;;;11.20;;
11173;SDS011;5643;50.856;12.088;2023-08-20T06:13:16;13.75;;;12.68;;
11173;SDS011;5643;50.856;12.088;2023-08-20T06:15:46;13.40;;;12.40;;
11173;SDS011;5643;50.856;12.088;2023-08-20T06:18:13;12.05;;;11.05;;
11173;SDS011;5643;50.856;12.088;2023-08-20T06:20:42;12.60;;;11.70;;
11173;SDS011;5643;50.856;12.088;2023-08-20T06:23:10;12.80;;;11.80;;
11173;SDS011;5643;50.856;12.088;2023-08-20T06:25:39;11.60;;;10.70;;
11173;SDS011;5643;50.856;12.088;2023-08-20T06:28:08;11.15;;;10.35;;
11173;SDS011;5643;50.856;12.088;2023-08-20T06:30:35;11.40;;;10.50;;
11173;SDS011;5643;50.856;12.088;2023-08-20T06:33:03;13.30;;;12.30;;
11173;SDS011;5643;50.856;12.088;2023-08-20T06:35:31;14.02;;;12.82;;
11173;SDS011;5643;50.856;12.088;2023-08-20T06:38:01;12.13;;;11.23;;
11173;SDS011;5643;50.856;12.088;2023-08-20T06:40:29;11.20;;;10.40;;
11173;SDS011;5643;50.856;12.088;2023-08-20T06:42:59;9.82;;;9.13;;
11173;SDS011;5643;50.856;12.088;2023-08-20T06:45:26;9.45;;;8.77;;
11173;SDS011;5643;50.856;12.088;2023-08-20T06:47:54;8.50;;;7.90;;
11173;SDS011;5643;50.856;12.088;2023-08-20T06:50:24;9.52;;;8.82;;
11173;SDS011;5643;50.856;12.088;2023-08-20T06:52:52;9.13;;;8.43;;
11173;SDS011;5643;50.856;12.088;2023-08-20T06:55:21;8.27;;;7.78;;
11173;SDS011;5643;50.856;12.088;2023-08-20T06:57:48;9.07;;;8.38;;
11173;SDS011;5643;50.856;12.088;2023-08-20T07:00:17;7.82;;;7.22;;
11173;SDS011;5643;50.856;12.088;2023-08-20T07:02:45;10.10;;;9.30;;
11173;SDS011;5643;50.856;12.088;2023-08-20T07:05:12;11.75;;;10.75;;
11173;SDS011;5643;50.856;12.088;2023-08-20T07:07:40;9.82;;;9.05;;
11173;SDS011;5643;50.856;12.088;2023-08-20T07:10:08;11.25;;;10.35;;
11173;SDS011;5643;50.856;12.088;2023-08-20T07:12:37;10.57;;;9.77;;
11173;SDS011;5643;50.856;12.088;2023-08-20T07:15:06;9.20;;;8.50;;
11173;SDS011;5643;50.856;12.088;2023-08-20T07:17:34;9.25;;;8.45;;
11173;SDS011;5643;50.856;12.088;2023-08-20T07:20:03;10.98;;;10.02;;
11173;SDS011;5643;50.856;12.088;2023-08-20T07:22:32;10.00;;;9.30;;
11173;SDS011;5643;50.856;12.088;2023-08-20T07:25:00;8.90;;;8.20;;
11173;SDS011;5643;50.856;12.088;2023-08-20T07:27:28;9.05;;;8.38;;
11173;SDS011;5643;50.856;12.088;2023-08-20T07:29:57;16.17;;;14.77;;
11173;SDS011;5643;50.856;12.088;2023-08-20T07:32:25;11.95;;;11.05;;
11173;SDS011;5643;50.856;12.088;2023-08-20T07:34:53;10.43;;;9.60;;
11173;SDS011;5643;50.856;12.088;2023-08-20T07:37:21;12.88;;;11.77;;
11173;SDS011;5643;50.856;12.088;2023-08-20T07:39:49;12.35;;;11.25;;
11173;SDS011;5643;50.856;12.088;2023-08-20T07:42:18;12.02;;;11.02;;
11173;SDS011;5643;50.856;12.088;2023-08-20T07:44:46;13.05;;;11.95;;
11173;SDS011;5643;50.856;12.088;2023-08-20T07:47:16;13.23;;;12.13;;
11173;SDS011;5643;50.856;12.088;2023-08-20T07:49:44;13.75;;;12.55;;
11173;SDS011;5643;50.856;12.088;2023-08-20T07:52:12;15.20;;;13.90;;
11173;SDS011;5643;50.856;12.088;2023-08-20T07:54:40;14.80;;;13.60;;
11173;SDS011;5643;50.856;12.088;2023-08-20T07:57:11;13.68;;;12.48;;
11173;SDS011;5643;50.856;12.088;2023-08-20T07:59:39;15.88;;;14.55;;
11173;SDS011;5643;50.856;12.088;2023-08-20T08:02:07;15.50;;;14.20;;
11173;SDS011;5643;50.856;12.088;2023-08-20T08:04:37;13.40;;;12.30;;
11173;SDS011;5643;50.856;12.088;2023-08-20T08:07:05;12.93;;;11.82;;
11173;SDS011;5643;50.856;12.088;2023-08-20T08:09:35;14.80;;;13.50;;
11173;SDS011;5643;50.856;12.088;2023-08-20T08:12:09;12.40;;;11.30;;
11173;SDS011;5643;50.856;12.088;2023-08-20T08:14:39;13.90;;;12.63;;
11173;SDS011;5643;50.856;12.088;2023-08-20T08:17:12;12.05;;;11.05;;
11173;SDS011;5643;50.856;12.088;2023-08-20T08:19:44;13.05;;;11.95;;
11173;SDS011;5643;50.856;12.088;2023-08-20T08:22:13;11.95;;;10.88;;
11173;SDS011;5643;50.856;12.088;2023-08-20T08:24:43;11.30;;;10.38;;
11173;SDS011;5643;50.856;12.088;2023-08-20T08:27:12;11.20;;;10.30;;
11173;SDS011;5643;50.856;12.088;2023-08-20T08:29:42;9.98;;;9.18;;
11173;SDS011;5643;50.856;12.088;2023-08-20T08:32:11;10.35;;;9.43;;
11173;SDS011;5643;50.856;12.088;2023-08-20T08:34:39;9.23;;;8.43;;
11173;SDS011;5643;50.856;12.088;2023-08-20T08:37:08;8.40;;;7.80;;
11173;SDS011;5643;50.856;12.088;2023-08-20T08:39:37;11.80;;;10.90;;
11173;SDS011;5643;50.856;12.088;2023-08-20T08:42:05;11.13;;;10.23;;
11173;SDS011;5643;50.856;12.088;2023-08-20T08:44:33;10.57;;;9.63;;
11173;SDS011;5643;50.856;12.088;2023-08-20T08:47:01;9.93;;;9.13;;
11173;SDS011;5643;50.856;12.088;2023-08-20T08:49:30;11.35;;;10.35;;
11173;SDS011;5643;50.856;12.088;2023-08-20T08:51:59;10.95;;;10.02;;
11173;SDS011;5643;50.856;12.088;2023-08-20T08:54:29;9.93;;;9.15;;
11173;SDS011;5643;50.856;12.088;2023-08-20T08:56:58;8.85;;;8.15;;
11173;SDS011;5643;50.856;12.088;2023-08-20T08:59:26;9.43;;;8.63;;
11173;SDS011;5643;50.856;12.088;2023-08-20T09:01:54;8.02;;;7.43;;
11173;SDS011;5643;50.856;12.088;2023-08-20T09:04:24;11.07;;;10.18;;
11173;SDS011;5643;50.856;12.088;2023-08-20T09:06:53;10.43;;;9.63;;
11173;SDS011;5643;50.856;12.088;2023-08-20T09:09:23;8.85;;;8.15;;
11173;SDS011;5643;50.856;12.088;2023-08-20T09:11:53;7.32;;;6.72;;
11173;SDS011;5643;50.856;12.088;2023-08-20T09:14:21;9.10;;;8.40;;
11173;SDS011;5643;50.856;12.088;2023-08-20T09:16:57;11.10;;;10.20;;
11173;SDS011;5643;50.856;12.088;2023-08-20T09:19:27;10.10;;;9.30;;
11173;SDS011;5643;50.856;12.088;2023-08-20T09:21:56;10.43;;;9.50;;
11173;SDS011;5643;50.856;12.088;2023-08-20T09:24:26;8.40;;;7.70;;
11173;SDS011;5643;50.856;12.088;2023-08-20T09:26:58;8.73;;;8.02;;
11173;SDS011;5643;50.856;12.088;2023-08-20T09:29:26;10.27;;;9.38;;
11173;SDS011;5643;50.856;12.088;2023-08-20T09:32:00;8.40;;;7.80;;
11173;SDS011;5643;50.856;12.088;2023-08-20T09:37:15;8.65;;;7.95;;
11173;SDS011;5643;50.856;12.088;2023-08-20T09:39:43;9.07;;;8.38;;
11173;SDS011;5643;50.856;12.088;2023-08-20T09:42:12;7.72;;;7.13;;
11173;SDS011;5643;50.856;12.088;2023-08-20T09:44:40;7.35;;;6.80;;
11173;SDS011;5643;50.856;12.088;2023-08-20T09:47:09;7.85;;;7.15;;
11173;SDS011;5643;50.856;12.088;2023-08-20T09:49:37;7.05;;;6.50;;
11173;SDS011;5643;50.856;12.088;2023-08-20T09:52:06;7.00;;;6.40;;
11173;SDS011;5643;50.856;12.088;2023-08-20T09:54:47;7.03;;;6.53;;
11173;SDS011;5643;50.856;12.088;2023-08-20T09:57:22;8.00;;;7.30;;
11173;SDS011;5643;50.856;12.088;2023-08-20T09:59:53;6.57;;;6.05;;
11173;SDS011;5643;50.856;12.088;2023-08-20T10:02:22;6.57;;;6.07;;
11173;SDS011;5643;50.856;12.088;2023-08-20T10:04:50;7.10;;;6.60;;
11173;SDS011;5643;50.856;12.088;2023-08-20T10:07:19;6.20;;;5.80;;
11173;SDS011;5643;50.856;12.088;2023-08-20T10:09:47;6.53;;;6.03;;
11173;SDS011;5643;50.856;12.088;2023-08-20T10:12:16;8.93;;;8.23;;
11173;SDS011;5643;50.856;12.088;2023-08-20T10:14:47;9.57;;;8.77;;
11173;SDS011;5643;50.856;12.088;2023-08-20T10:17:15;8.43;;;7.80;;
11173;SDS011;5643;50.856;12.088;2023-08-20T10:19:46;8.98;;;8.25;;
11173;SDS011;5643;50.856;12.088;2023-08-20T10:22:15;8.18;;;7.57;;
11173;SDS011;5643;50.856;12.088;2023-08-20T10:24:47;6.55;;;6.05;;
11173;SDS011;5643;50.856;12.088;2023-08-20T10:27:23;7.28;;;6.78;;
11173;SDS011;5643;50.856;12.088;2023-08-20T10:29:54;7.82;;;7.22;;
11173;SDS011;5643;50.856;12.088;2023-08-20T10:35:07;7.15;;;6.55;;
11173;SDS011;5643;50.856;12.088;2023-08-20T10:37:36;6.63;;;6.13;;
11173;SDS011;5643;50.856;12.088;2023-08-20T10:40:09;7.03;;;6.53;;
11173;SDS011;5643;50.856;12.088;2023-08-20T10:42:41;5.80;;;5.40;;
11173;SDS011;5643;50.856;12.088;2023-08-20T10:45:14;6.00;;;5.60;;
11173;SDS011;5643;50.856;12.088;2023-08-20T10:47:45;5.40;;;5.10;;
11173;SDS011;5643;50.856;12.088;2023-08-20T10:50:16;6.55;;;6.05;;
11173;SDS011;5643;50.856;12.088;2023-08-20T10:52:47;6.65;;;6.15;;
11173;SDS011;5643;50.856;12.088;2023-08-20T10:55:18;5.72;;;5.32;;
11173;SDS011;5643;50.856;12.088;2023-08-20T10:57:54;5.68;;;5.28;;
11173;SDS011;5643;50.856;12.088;2023-08-20T11:00:27;7.70;;;7.10;;
11173;SDS011;5643;50.856;12.088;2023-08-20T11:03:17;7.90;;;7.30;;
11173;SDS011;5643;50.856;12.088;2023-08-20T11:05:46;6.72;;;6.22;;
11173;SDS011;5643;50.856;12.088;2023-08-20T11:08:16;5.93;;;5.50;;
11173;SDS011;5643;50.856;12.088;2023-08-20T11:10:48;6.50;;;6.00;;
11173;SDS011;5643;50.856;12.088;2023-08-20T11:13:17;5.65;;;5.25;;
11173;SDS011;5643;50.856;12.088;2023-08-20T11:15:51;7.38;;;6.88;;
11173;SDS011;5643;50.856;12.088;2023-08-20T11:18:19;6.70;;;6.20;;
11173;SDS011;5643;50.856;12.088;2023-08-20T11:20:49;7.05;;;6.55;;
11173;SDS011;5643;50.856;12.088;2023-08-20T11:23:21;6.93;;;6.43;;
11173;SDS011;5643;50.856;12.088;2023-08-20T11:25:50;5.13;;;4.82;;
11173;SDS011;5643;50.856;12.088;2023-08-20T11:28:21;5.38;;;4.97;;
11173;SDS011;5643;50.856;12.088;2023-08-20T11:30:52;5.50;;;5.10;;
11173;SDS011;5643;50.856;12.088;2023-08-20T11:33:21;5.38;;;5.00;;
11173;SDS011;5643;50.856;12.088;2023-08-20T11:35:54;5.43;;;5.03;;
11173;SDS011;5643;50.856;12.088;2023-08-20T11:38:28;4.90;;;4.50;;
11173;SDS011;5643;50.856;12.088;2023-08-20T11:41:12;4.15;;;3.95;;
11173;SDS011;5643;50.856;12.088;2023-08-20T11:43:41;4.55;;;4.25;;
11173;SDS011;5643;50.856;12.088;2023-08-20T11:46:14;5.07;;;4.68;;
11173;SDS011;5643;50.856;12.088;2023-08-20T11:51:34;5.38;;;4.97;;
11173;SDS011;5643;50.856;12.088;2023-08-20T11:54:09;6.35;;;5.85;;
11173;SDS011;5643;50.856;12.088;2023-08-20T11:56:42;5.32;;;4.93;;
11173;SDS011;5643;50.856;12.088;2023-08-20T11:59:14;4.25;;;4.05;;
11173;SDS011;5643;50.856;12.088;2023-08-20T12:01:54;4.43;;;4.13;;
11173;SDS011;5643;50.856;12.088;2023-08-20T12:04:29;4.50;;;4.20;;
11173;SDS011;5643;50.856;12.088;2023-08-20T12:07:03;4.50;;;4.20;;
11173;SDS011;5643;50.856;12.088;2023-08-20T12:09:31;3.92;;;3.70;;
11173;SDS011;5643;50.856;12.088;2023-08-20T12:12:01;6.18;;;5.72;;
11173;SDS011;5643;50.856;12.088;2023-08-20T12:14:36;6.53;;;6.10;;
11173;SDS011;5643;50.856;12.088;2023-08-20T12:17:11;6.68;;;6.18;;
11173;SDS011;5643;50.856;12.088;2023-08-20T12:19:41;5.45;;;5.13;;
11173;SDS011;5643;50.856;12.088;2023-08-20T12:22:16;6.13;;;5.60;;
11173;SDS011;5643;50.856;12.088;2023-08-20T12:24:47;5.07;;;4.78;;
11173;SDS011;5643;50.856;12.088;2023-08-20T12:27:19;4.50;;;4.20;;
11173;SDS011;5643;50.856;12.088;2023-08-20T12:29:50;4.95;;;4.55;;
11173;SDS011;5643;50.856;12.088;2023-08-20T12:32:23;4.95;;;4.65;;
11173;SDS011;5643;50.856;12.088;2023-08-20T12:34:56;6.53;;;6.03;;
11173;SDS011;5643;50.856;12.088;2023-08-20T12:37:48;5.93;;;5.43;;
11173;SDS011;5643;50.856;12.088;2023-08-20T12:40:20;6.53;;;6.03;;
11173;SDS011;5643;50.856;12.088;2023-08-20T12:43:00;5.90;;;5.50;;
11173;SDS011;5643;50.856;12.088;2023-08-20T12:45:41;4.60;;;4.30;;
11173;SDS011;5643;50.856;12.088;2023-08-20T12:48:40;5.50;;;5.10;;
11173;SDS011;5643;50.856;12.088;2023-08-20T12:51:11;6.60;;;6.00;;
11173;SDS011;5643;50.856;12.088;2023-08-20T12:53:42;5.10;;;4.80;;
11173;SDS011;5643;50.856;12.088;2023-08-20T12:56:11;4.97;;;4.68;;
11173;SDS011;5643;50.856;12.088;2023-08-20T12:58:41;5.20;;;4.80;;
11173;SDS011;5643;50.856;12.088;2023-08-20T13:01:09;5.75;;;5.35;;
11173;SDS011;5643;50.856;12.088;2023-08-20T13:03:40;5.97;;;5.47;;
11173;SDS011;5643;50.856;12.088;2023-08-20T13:06:10;6.28;;;5.70;;
11173;SDS011;5643;50.856;12.088;2023-08-20T13:08:39;5.95;;;5.55;;
11173;SDS011;5643;50.856;12.088;2023-08-20T13:11:09;4.80;;;4.50;;
11173;SDS011;5643;50.856;12.088;2023-08-20T13:13:40;4.88;;;4.57;;
11173;SDS011;5643;50.856;12.088;2023-08-20T13:16:09;5.57;;;5.10;;
11173;SDS011;5643;50.856;12.088;2023-08-20T13:18:37;6.03;;;5.60;;
11173;SDS011;5643;50.856;12.088;2023-08-20T13:21:11;5.70;;;5.30;;
11173;SDS011;5643;50.856;12.088;2023-08-20T13:23:41;5.70;;;5.30;;
11173;SDS011;5643;50.856;12.088;2023-08-20T13:26:10;4.65;;;4.35;;
11173;SDS011;5643;50.856;12.088;2023-08-20T13:28:43;5.50;;;5.10;;
11173;SDS011;5643;50.856;12.088;2023-08-20T13:31:12;5.50;;;5.03;;
11173;SDS011;5643;50.856;12.088;2023-08-20T13:33:47;5.40;;;5.00;;
11173;SDS011;5643;50.856;12.088;2023-08-20T13:36:19;5.10;;;4.80;;
11173;SDS011;5643;50.856;12.088;2023-08-20T13:38:50;5.03;;;4.72;;
11173;SDS011;5643;50.856;12.088;2023-08-20T13:41:19;5.90;;;5.50;;
11173;SDS011;5643;50.856;12.088;2023-08-20T13:43:51;5.20;;;4.90;;
11173;SDS011;5643;50.856;12.088;2023-08-20T13:46:23;4.97;;;4.57;;
11173;SDS011;5643;50.856;12.088;2023-08-20T13:48:53;6.38;;;5.97;;
11173;SDS011;5643;50.856;12.088;2023-08-20T13:51:26;6.15;;;5.75;;
11173;SDS011;5643;50.856;12.088;2023-08-20T13:53:56;4.72;;;4.43;;
11173;SDS011;5643;50.856;12.088;2023-08-20T13:56:28;5.45;;;5.05;;
11173;SDS011;5643;50.856;12.088;2023-08-20T13:58:57;6.38;;;5.97;;
11173;SDS011;5643;50.856;12.088;2023-08-20T14:01:28;6.00;;;5.50;;
11173;SDS011;5643;50.856;12.088;2023-08-20T14:03:58;5.38;;;4.97;;
11173;SDS011;5643;50.856;12.088;2023-08-20T14:06:28;4.90;;;4.57;;
11173;SDS011;5643;50.856;12.088;2023-08-20T14:09:01;5.90;;;5.50;;
11173;SDS011;5643;50.856;12.088;2023-08-20T14:11:31;5.25;;;4.88;;
11173;SDS011;5643;50.856;12.088;2023-08-20T14:14:01;5.90;;;5.50;;
11173;SDS011;5643;50.856;12.088;2023-08-20T14:16:33;7.35;;;6.55;;
11173;SDS011;5643;50.856;12.088;2023-08-20T14:19:05;6.15;;;5.75;;
11173;SDS011;5643;50.856;12.088;2023-08-20T14:21:39;6.50;;;5.93;;
11173;SDS011;5643;50.856;12.088;2023-08-20T14:24:10;5.82;;;5.40;;
11173;SDS011;5643;50.856;12.088;2023-08-20T14:26:38;6.93;;;6.43;;
11173;SDS011;5643;50.856;12.088;2023-08-20T14:29:08;6.18;;;5.78;;
11173;SDS011;5643;50.856;12.088;2023-08-20T14:31:37;6.70;;;6.20;;
11173;SDS011;5643;50.856;12.088;2023-08-20T14:34:06;7.97;;;7.28;;
11173;SDS011;5643;50.856;12.088;2023-08-20T14:36:35;6.00;;;5.53;;
11173;SDS011;5643;50.856;12.088;2023-08-20T14:39:06;6.55;;;6.05;;
11173;SDS011;5643;50.856;12.088;2023-08-20T14:41:39;5.75;;;5.35;;
11173;SDS011;5643;50.856;12.088;2023-08-20T14:44:08;6.10;;;5.70;;
11173;SDS011;5643;50.856;12.088;2023-08-20T14:46:36;5.78;;;5.38;;
11173;SDS011;5643;50.856;12.088;2023-08-20T14:49:08;7.03;;;6.53;;
11173;SDS011;5643;50.856;12.088;2023-08-20T14:51:37;6.55;;;6.10;;
11173;SDS011;5643;50.856;12.088;2023-08-20T14:54:07;6.68;;;6.20;;
11173;SDS011;5643;50.856;12.088;2023-08-20T14:56:36;6.38;;;5.88;;
11173;SDS011;5643;50.856;12.088;2023-08-20T14:59:05;7.40;;;6.88;;
11173;SDS011;5643;50.856;12.088;2023-08-20T15:01:36;7.38;;;6.72;;
11173;SDS011;5643;50.856;12.088;2023-08-20T15:04:04;6.60;;;6.10;;
11173;SDS011;5643;50.856;12.088;2023-08-20T15:06:33;5.13;;;4.82;;